createdAt,value
2023-02-21T00:00:32.730Z,15.60
2023-02-21T00:03:18.221Z,13.45
2023-02-21T00:08:48.660Z,15.77
2023-02-21T00:11:33.895Z,12.13
2023-02-21T00:14:18.925Z,16.15
2023-02-21T00:17:05.303Z,12.95
2023-02-21T00:19:50.490Z,10.85
2023-02-21T00:22:35.835Z,11.57
2023-02-21T00:25:20.947Z,10.40
2023-02-21T00:28:06.400Z,9.23
2023-02-21T00:30:51.887Z,10.10
2023-02-21T00:36:22.522Z,10.23
2023-02-21T00:39:07.750Z,9.52
2023-02-21T00:41:53.144Z,8.48
2023-02-21T00:44:38.419Z,10.35
2023-02-21T00:47:23.909Z,10.63
2023-02-21T00:50:09.035Z,9.25
2023-02-21T00:52:54.387Z,7.95
2023-02-21T00:55:39.806Z,10.77
2023-02-21T00:58:25.124Z,13.15
2023-02-21T01:01:10.198Z,8.10
2023-02-21T01:03:55.693Z,15.23
2023-02-21T01:09:26.139Z,7.55
2023-02-21T01:12:11.426Z,8.55
2023-02-21T01:14:56.817Z,9.48
2023-02-21T01:17:42.124Z,11.60
2023-02-21T01:20:27.571Z,11.25
2023-02-21T01:23:13.062Z,9.25
2023-02-21T01:28:43.695Z,9.43
2023-02-21T01:31:29.106Z,9.20
2023-02-21T01:37:00.847Z,15.00
2023-02-21T01:39:46.156Z,13.35
2023-02-21T01:42:31.537Z,15.35
2023-02-21T01:45:41.682Z,15.73
2023-02-21T01:48:33.530Z,9.68
2023-02-21T01:51:21.774Z,12.73
2023-02-21T01:54:06.894Z,12.80
2023-02-21T01:56:52.898Z,16.17
2023-02-21T01:59:40.832Z,12.55
2023-02-21T02:02:41.384Z,15.80
2023-02-21T02:05:30.032Z,12.30
2023-02-21T02:08:16.035Z,11.23
2023-02-21T02:11:02.387Z,14.32
2023-02-21T02:13:40.606Z,10.13
2023-02-21T02:16:23.182Z,9.63
2023-02-21T02:19:13.098Z,12.95
2023-02-21T02:21:53.060Z,16.63
2023-02-21T02:24:49.720Z,11.80
2023-02-21T02:27:32.450Z,13.07
2023-02-21T02:30:01.926Z,17.25
2023-02-21T02:32:53.627Z,16.95
2023-02-21T02:35:32.683Z,16.85
2023-02-21T02:38:20.222Z,17.73
2023-02-21T02:41:16.927Z,14.27
2023-02-21T02:43:55.624Z,15.38
2023-02-21T02:46:34.622Z,10.93
2023-02-21T02:49:07.088Z,12.48
2023-02-21T02:51:34.955Z,13.07
2023-02-21T02:54:01.868Z,16.95
2023-02-21T02:56:29.234Z,13.32
2023-02-21T02:59:01.500Z,11.60
2023-02-21T03:01:49.342Z,12.98
2023-02-21T03:04:19.455Z,17.83
2023-02-21T03:07:04.853Z,13.82
2023-02-21T03:09:59.962Z,12.05
2023-02-21T03:12:45.101Z,13.13
2023-02-21T03:15:25.262Z,13.85
2023-02-21T03:18:04.434Z,15.63
2023-02-21T03:20:33.152Z,15.48
2023-02-21T03:23:02.676Z,15.18
2023-02-21T03:25:32.004Z,14.43
2023-02-21T03:28:01.213Z,12.18
2023-02-21T03:30:29.912Z,12.98
2023-02-21T03:32:57.064Z,12.32
2023-02-21T03:35:29.253Z,12.70
2023-02-21T03:37:58.033Z,11.75
2023-02-21T03:40:30.800Z,11.80
2023-02-21T03:42:59.972Z,13.80
2023-02-21T03:45:26.640Z,13.07
2023-02-21T03:47:53.246Z,14.00
2023-02-21T03:50:19.808Z,16.40
2023-02-21T03:52:46.376Z,14.68
2023-02-21T03:55:12.977Z,16.48
2023-02-21T03:57:39.582Z,20.02
2023-02-21T04:00:07.101Z,13.43
2023-02-21T04:02:33.653Z,15.07
2023-02-21T04:05:00.362Z,12.70
2023-02-21T04:07:27.259Z,12.68
2023-02-21T04:09:53.809Z,16.42
2023-02-21T04:12:20.424Z,12.65
2023-02-21T04:14:47.502Z,11.82
2023-02-21T04:17:14.041Z,14.38
2023-02-21T04:19:40.576Z,14.25
2023-02-21T04:22:07.357Z,14.13
2023-02-21T04:24:33.878Z,15.13
2023-02-21T04:27:00.500Z,12.18
2023-02-21T04:29:27.192Z,13.02
2023-02-21T04:31:55.580Z,12.73
2023-02-21T04:34:22.195Z,11.88
2023-02-21T04:36:48.922Z,10.85
2023-02-21T04:39:15.576Z,13.52
2023-02-21T04:41:42.236Z,13.23
2023-02-21T04:44:08.835Z,13.90
2023-02-21T04:46:35.394Z,13.55
2023-02-21T04:49:02.281Z,11.98
2023-02-21T04:51:28.970Z,13.60
2023-02-21T04:53:55.733Z,13.65
2023-02-21T04:56:24.776Z,13.02
2023-02-21T04:58:51.892Z,12.00
2023-02-21T05:01:20.339Z,12.30
2023-02-21T05:03:47.724Z,11.38
2023-02-21T05:06:22.778Z,14.88
2023-02-21T05:08:49.766Z,11.95
2023-02-21T05:11:17.738Z,12.15
2023-02-21T05:13:45.181Z,14.52
2023-02-21T05:16:11.925Z,14.93
2023-02-21T05:18:41.110Z,13.65
2023-02-21T05:21:08.005Z,16.45
2023-02-21T05:23:35.940Z,14.50
2023-02-21T05:26:13.022Z,14.20
2023-02-21T05:28:40.992Z,16.88
2023-02-21T05:31:08.836Z,14.25
2023-02-21T05:33:35.528Z,16.75
2023-02-21T05:36:02.410Z,14.48
2023-02-21T05:38:29.003Z,17.33
2023-02-21T05:40:55.616Z,13.23
2023-02-21T05:43:22.332Z,12.88
2023-02-21T05:45:48.988Z,13.50
2023-02-21T05:48:15.955Z,16.23
2023-02-21T05:50:42.843Z,14.95
2023-02-21T05:53:10.299Z,19.38
2023-02-21T05:55:37.543Z,15.77
2023-02-21T05:58:04.409Z,14.75
2023-02-21T06:00:31.394Z,19.00
2023-02-21T06:02:58.051Z,16.00
2023-02-21T06:05:25.307Z,18.45
2023-02-21T06:07:52.198Z,17.20
2023-02-21T06:10:19.994Z,16.02
2023-02-21T06:12:46.856Z,17.80
2023-02-21T06:15:13.612Z,17.08
2023-02-21T06:17:41.172Z,17.52
2023-02-21T06:20:10.447Z,17.15
2023-02-21T06:22:36.965Z,17.90
2023-02-21T06:25:03.784Z,17.00
2023-02-21T06:27:30.324Z,18.25
2023-02-21T06:29:57.085Z,15.52
2023-02-21T06:32:23.746Z,17.13
2023-02-21T06:34:50.514Z,15.30
2023-02-21T06:37:18.571Z,19.05
2023-02-21T06:39:45.612Z,17.08
2023-02-21T06:42:14.664Z,21.23
2023-02-21T06:44:44.201Z,19.98
2023-02-21T06:47:10.867Z,19.10
2023-02-21T06:49:37.395Z,20.48
2023-02-21T06:52:04.370Z,23.45
2023-02-21T06:54:31.000Z,17.58
2023-02-21T06:56:57.815Z,18.15
2023-02-21T06:59:24.514Z,14.05
2023-02-21T07:01:51.330Z,19.40
2023-02-21T07:04:17.920Z,18.65
2023-02-21T07:06:44.515Z,16.48
2023-02-21T07:09:11.115Z,17.88
2023-02-21T07:11:37.815Z,19.88
2023-02-21T07:14:04.484Z,16.63
2023-02-21T07:16:30.999Z,19.83
2023-02-21T07:18:57.567Z,22.00
2023-02-21T07:21:26.753Z,22.08
2023-02-21T07:23:53.685Z,16.40
2023-02-21T07:26:20.194Z,16.58
2023-02-21T07:28:50.261Z,19.05
2023-02-21T07:31:19.532Z,17.02
2023-02-21T07:33:46.549Z,21.08
2023-02-21T07:36:13.146Z,25.42
2023-02-21T07:38:39.987Z,19.17
2023-02-21T07:41:06.821Z,16.70
2023-02-21T07:43:33.483Z,20.90
2023-02-21T07:46:00.425Z,18.90
2023-02-21T07:48:27.263Z,20.23
2023-02-21T07:50:53.862Z,20.20
2023-02-21T07:53:20.453Z,20.23
2023-02-21T07:55:47.409Z,19.02
2023-02-21T07:58:14.100Z,20.02
2023-02-21T08:00:40.787Z,21.88
2023-02-21T08:03:07.516Z,19.63
2023-02-21T08:05:34.167Z,19.67
2023-02-21T08:08:00.900Z,23.90
2023-02-21T08:10:29.284Z,19.98
2023-02-21T08:12:55.932Z,21.88
2023-02-21T08:15:23.107Z,21.27
2023-02-21T08:17:50.355Z,17.92
2023-02-21T08:20:17.399Z,17.85
2023-02-21T08:22:44.087Z,22.10
2023-02-21T08:25:12.513Z,18.35
2023-02-21T08:27:40.794Z,19.15
2023-02-21T08:30:14.528Z,20.90
2023-02-21T08:32:41.580Z,18.60
2023-02-21T08:35:08.493Z,16.67
2023-02-21T08:37:36.343Z,22.08
2023-02-21T08:40:04.352Z,18.65
2023-02-21T08:42:30.980Z,18.63
2023-02-21T08:44:57.736Z,19.95
2023-02-21T08:47:24.533Z,18.92
2023-02-21T08:49:51.244Z,18.50
2023-02-21T08:52:21.004Z,17.13
2023-02-21T08:54:47.791Z,17.90
2023-02-21T08:57:14.637Z,19.25
2023-02-21T08:59:42.733Z,19.60
2023-02-21T09:02:21.143Z,20.98
2023-02-21T09:04:48.673Z,19.00
2023-02-21T09:07:17.557Z,16.80
2023-02-21T09:09:44.674Z,15.73
2023-02-21T09:12:12.261Z,15.43
2023-02-21T09:14:41.387Z,20.02
2023-02-21T09:17:10.424Z,18.27
2023-02-21T09:19:37.442Z,21.75
2023-02-21T09:22:06.253Z,19.80
2023-02-21T09:24:32.901Z,17.50
2023-02-21T09:27:03.050Z,15.68
2023-02-21T09:29:45.483Z,17.00
2023-02-21T09:32:13.669Z,18.95
2023-02-21T09:34:40.247Z,17.20
2023-02-21T09:37:07.134Z,22.58
2023-02-21T09:39:33.872Z,18.08
2023-02-21T09:42:00.523Z,18.73
2023-02-21T09:44:29.142Z,19.38
2023-02-21T09:47:02.698Z,19.75
2023-02-21T09:49:37.202Z,17.50
2023-02-21T09:52:04.291Z,20.10
2023-02-21T09:54:47.468Z,23.00
2023-02-21T09:57:17.829Z,21.05
2023-02-21T09:59:45.020Z,18.60
2023-02-21T10:02:14.560Z,23.00
2023-02-21T10:04:57.880Z,16.65
2023-02-21T10:07:43.557Z,17.75
2023-02-21T10:13:08.492Z,18.45
2023-02-21T10:15:48.846Z,18.85
2023-02-21T10:18:31.427Z,17.25
2023-02-21T10:21:01.165Z,16.92
2023-02-21T10:23:37.403Z,19.02
2023-02-21T10:26:11.786Z,17.67
2023-02-21T10:28:39.466Z,18.43
2023-02-21T10:31:19.234Z,18.40
2023-02-21T10:33:46.160Z,19.70
2023-02-21T10:36:19.339Z,18.23
2023-02-21T10:39:13.237Z,18.95
2023-02-21T10:41:41.186Z,18.77
2023-02-21T10:44:30.312Z,19.65
2023-02-21T10:47:25.283Z,17.50
2023-02-21T10:50:09.421Z,17.02
2023-02-21T10:52:47.958Z,18.30
2023-02-21T10:55:32.598Z,15.50
2023-02-21T10:58:07.264Z,20.90
2023-02-21T11:00:47.845Z,17.70
2023-02-21T11:03:26.732Z,18.13
2023-02-21T11:05:59.633Z,20.58
2023-02-21T11:08:43.763Z,18.25
2023-02-21T11:11:10.844Z,19.52
2023-02-21T11:13:37.764Z,17.55
2023-02-21T11:16:16.682Z,17.42
2023-02-21T11:18:43.584Z,19.52
2023-02-21T11:21:19.211Z,17.23
2023-02-21T11:24:02.556Z,16.48
2023-02-21T11:26:46.133Z,19.63
2023-02-21T11:29:16.886Z,16.52
2023-02-21T11:31:44.422Z,18.60
2023-02-21T11:34:14.363Z,17.73
2023-02-21T11:36:43.935Z,16.38
2023-02-21T11:39:23.643Z,18.60
2023-02-21T11:42:04.887Z,17.90
2023-02-21T11:44:37.637Z,19.75
2023-02-21T11:47:26.840Z,18.95
2023-02-21T11:50:10.281Z,18.42
2023-02-21T11:52:55.589Z,15.18
2023-02-21T11:55:26.535Z,19.92
2023-02-21T11:58:15.181Z,16.77
2023-02-21T12:01:01.907Z,15.35
2023-02-21T12:03:52.481Z,16.13
2023-02-21T12:06:37.237Z,17.35
2023-02-21T12:09:27.854Z,14.93
2023-02-21T12:12:02.152Z,17.08
2023-02-21T12:14:47.681Z,19.42
2023-02-21T12:17:20.273Z,18.05
2023-02-21T12:20:17.604Z,16.98
2023-02-21T12:23:21.960Z,15.65
2023-02-21T12:26:22.742Z,16.80
2023-02-21T12:28:59.326Z,14.50
2023-02-21T12:32:12.709Z,16.85
2023-02-21T12:35:21.930Z,13.68
2023-02-21T12:38:14.201Z,14.85
2023-02-21T12:41:02.920Z,16.67
2023-02-21T12:43:55.306Z,16.48
2023-02-21T12:46:35.666Z,14.60
2023-02-21T12:49:09.341Z,14.98
2023-02-21T12:51:44.529Z,13.95
2023-02-21T12:57:04.890Z,13.80
2023-02-21T12:59:46.783Z,16.23
2023-02-21T13:02:26.941Z,14.77
2023-02-21T13:05:01.545Z,16.38
2023-02-21T13:07:52.486Z,13.00
2023-02-21T13:10:49.031Z,14.63
2023-02-21T13:13:23.939Z,15.27
2023-02-21T13:15:53.899Z,12.00
2023-02-21T13:18:49.600Z,14.90
2023-02-21T13:21:38.069Z,15.63
2023-02-21T13:24:38.839Z,15.60
2023-02-21T13:27:34.561Z,16.63
2023-02-21T13:30:19.369Z,13.52
2023-02-21T13:32:58.263Z,12.77
2023-02-21T13:35:32.694Z,15.30
2023-02-21T13:38:01.170Z,14.05
2023-02-21T13:40:47.638Z,12.02
2023-02-21T13:43:26.356Z,13.63
2023-02-21T13:45:53.213Z,10.18
2023-02-21T13:48:28.904Z,11.98
2023-02-21T13:50:58.034Z,11.38
2023-02-21T13:53:32.364Z,11.50
2023-02-21T13:55:58.993Z,11.83
2023-02-21T13:58:45.955Z,11.23
2023-02-21T14:01:39.035Z,10.98
2023-02-21T14:04:43.428Z,10.57
2023-02-21T14:07:10.109Z,11.93
2023-02-21T14:09:40.629Z,12.20
2023-02-21T14:12:07.921Z,11.18
2023-02-21T14:14:39.579Z,11.15
2023-02-21T14:17:09.934Z,12.32
2023-02-21T14:19:39.374Z,14.20
2023-02-21T14:22:21.046Z,9.98
2023-02-21T14:24:53.045Z,12.63
2023-02-21T14:27:19.860Z,10.88
2023-02-21T14:30:12.899Z,11.32
2023-02-21T14:32:46.138Z,11.02
2023-02-21T14:35:23.988Z,13.18
2023-02-21T14:38:06.320Z,13.23
2023-02-21T14:40:32.883Z,8.50
2023-02-21T14:43:12.028Z,10.27
2023-02-21T14:45:57.235Z,10.35
2023-02-21T14:48:38.888Z,7.50
2023-02-21T14:51:28.251Z,6.97
2023-02-21T14:54:07.032Z,7.30
2023-02-21T14:57:04.804Z,9.23
2023-02-21T15:00:06.579Z,8.65
2023-02-21T15:03:04.933Z,13.57
2023-02-21T15:05:53.041Z,10.95
2023-02-21T15:08:23.829Z,9.48
2023-02-21T15:10:56.035Z,10.63
2023-02-21T15:13:33.006Z,9.38
2023-02-21T15:16:09.224Z,10.30
2023-02-21T15:19:00.312Z,9.13
2023-02-21T15:21:27.343Z,11.90
2023-02-21T15:24:20.335Z,9.93
2023-02-21T15:26:47.019Z,9.27
2023-02-21T15:29:17.624Z,9.90
2023-02-21T15:31:49.484Z,24.48
2023-02-21T15:34:26.944Z,11.98
2023-02-21T15:37:16.957Z,9.07
2023-02-21T15:39:55.400Z,11.32
2023-02-21T15:42:23.726Z,11.85
2023-02-21T15:44:58.752Z,11.50
2023-02-21T15:47:28.496Z,11.98
2023-02-21T15:50:18.669Z,10.15
2023-02-21T15:52:48.858Z,9.18
2023-02-21T15:55:29.494Z,13.50
2023-02-21T15:58:02.567Z,11.57
2023-02-21T16:00:31.931Z,10.05
2023-02-21T16:03:27.585Z,11.55
2023-02-21T16:05:56.264Z,13.27
2023-02-21T16:08:23.020Z,13.10
2023-02-21T16:10:49.908Z,13.13
2023-02-21T16:13:16.628Z,13.57
2023-02-21T16:15:43.487Z,13.57
2023-02-21T16:18:16.708Z,11.57
2023-02-21T16:20:44.492Z,11.95
2023-02-21T16:23:20.192Z,9.23
2023-02-21T16:26:02.774Z,9.90
2023-02-21T16:28:31.123Z,9.32
2023-02-21T16:31:00.785Z,10.00
2023-02-21T16:33:28.833Z,9.65
2023-02-21T16:35:56.807Z,7.28
2023-02-21T16:38:25.760Z,15.73
2023-02-21T16:40:53.303Z,12.25
2023-02-21T16:43:25.768Z,9.93
2023-02-21T16:45:55.350Z,15.23
2023-02-21T16:48:26.743Z,10.93
2023-02-21T16:50:53.359Z,10.95
2023-02-21T16:53:21.242Z,10.82
2023-02-21T16:55:50.230Z,9.75
2023-02-21T16:58:25.963Z,11.35
2023-02-21T17:01:06.000Z,9.13
2023-02-21T17:03:32.540Z,12.60
2023-02-21T17:06:01.059Z,11.27
2023-02-21T17:08:28.320Z,10.30
2023-02-21T17:10:56.606Z,9.77
2023-02-21T17:13:23.942Z,10.82
2023-02-21T17:15:52.264Z,10.38
2023-02-21T17:18:20.607Z,8.18
2023-02-21T17:20:47.338Z,9.73
2023-02-21T17:23:14.278Z,11.68
2023-02-21T17:25:40.925Z,14.32
2023-02-21T17:28:07.599Z,16.15
2023-02-21T17:30:34.335Z,14.98
2023-02-21T17:33:00.948Z,12.45
2023-02-21T17:35:28.388Z,14.38
2023-02-21T17:37:55.250Z,11.45
2023-02-21T17:40:23.666Z,19.98
2023-02-21T17:42:50.357Z,15.65
2023-02-21T17:45:19.224Z,12.93
2023-02-21T17:47:46.250Z,12.48
2023-02-21T17:50:13.686Z,17.95
2023-02-21T17:52:40.941Z,15.65
2023-02-21T17:55:08.511Z,12.88
2023-02-21T17:57:38.390Z,13.88
2023-02-21T18:00:09.773Z,15.50
2023-02-21T18:02:37.647Z,14.20
2023-02-21T18:05:05.017Z,11.65
2023-02-21T18:07:32.776Z,12.63
2023-02-21T18:10:00.674Z,12.07
2023-02-21T18:12:27.395Z,11.40
2023-02-21T18:14:55.596Z,15.32
2023-02-21T18:17:23.097Z,16.88
2023-02-21T18:19:49.738Z,13.55
2023-02-21T18:22:16.588Z,14.32
2023-02-21T18:24:43.313Z,16.45
2023-02-21T18:27:11.126Z,14.38
2023-02-21T18:29:37.819Z,16.30
2023-02-21T18:32:04.481Z,12.98
2023-02-21T18:34:31.068Z,14.13
2023-02-21T18:36:57.744Z,11.10
2023-02-21T18:39:24.670Z,14.50
2023-02-21T18:41:51.532Z,19.67
2023-02-21T18:44:18.300Z,15.45
2023-02-21T18:46:55.590Z,16.27
2023-02-21T18:49:23.047Z,11.15
2023-02-21T18:51:49.710Z,11.73
2023-02-21T18:54:17.190Z,9.88
2023-02-21T18:56:51.413Z,9.20
2023-02-21T18:59:20.362Z,9.98
2023-02-21T19:01:51.740Z,12.63
2023-02-21T19:04:18.519Z,12.52
2023-02-21T19:06:45.802Z,15.00
2023-02-21T19:09:13.162Z,19.17
2023-02-21T19:11:40.098Z,18.50
2023-02-21T19:14:06.829Z,18.63
2023-02-21T19:16:33.922Z,23.23
2023-02-21T19:19:03.231Z,31.63
2023-02-21T19:21:30.529Z,27.10
2023-02-21T19:23:57.490Z,25.45
2023-02-21T19:26:27.972Z,21.67
2023-02-21T19:28:55.377Z,17.52
2023-02-21T19:31:22.511Z,19.63
2023-02-21T19:33:49.259Z,16.98
2023-02-21T19:36:15.959Z,17.10
2023-02-21T19:38:42.542Z,19.23
2023-02-21T19:41:09.608Z,19.05
2023-02-21T19:43:36.253Z,18.85
2023-02-21T19:46:03.298Z,19.75
2023-02-21T19:48:29.930Z,19.27
2023-02-21T19:50:57.475Z,18.52
2023-02-21T19:53:24.143Z,16.70
2023-02-21T19:55:50.796Z,16.13
2023-02-21T19:58:19.722Z,17.67
2023-02-21T20:00:46.475Z,19.50
2023-02-21T20:03:13.355Z,21.88
2023-02-21T20:05:40.080Z,19.70
2023-02-21T20:08:07.036Z,21.23
2023-02-21T20:10:33.830Z,21.30
2023-02-21T20:13:02.142Z,24.83
2023-02-21T20:15:28.754Z,19.45
2023-02-21T20:17:55.697Z,17.42
2023-02-21T20:20:22.340Z,18.92
2023-02-21T20:22:48.972Z,20.13
2023-02-21T20:25:15.768Z,19.45
2023-02-21T20:27:42.489Z,17.77
2023-02-21T20:30:10.211Z,18.13
2023-02-21T20:32:37.051Z,18.27
2023-02-21T20:35:04.091Z,17.60
2023-02-21T20:37:32.381Z,17.80
2023-02-21T20:39:59.626Z,19.25
2023-02-21T20:42:26.204Z,16.52
2023-02-21T20:44:52.881Z,16.13
2023-02-21T20:47:19.719Z,19.05
2023-02-21T20:49:47.272Z,17.80
2023-02-21T20:52:15.434Z,19.17
2023-02-21T20:54:42.791Z,17.88
2023-02-21T20:57:10.087Z,20.80
2023-02-21T20:59:38.780Z,20.50
2023-02-21T21:02:06.026Z,16.48
2023-02-21T21:04:35.585Z,17.52
2023-02-21T21:07:12.589Z,18.55
2023-02-21T21:09:40.019Z,19.33
2023-02-21T21:12:12.920Z,20.20
2023-02-21T21:14:42.898Z,21.15
2023-02-21T21:17:12.822Z,19.80
2023-02-21T21:19:41.872Z,19.17
2023-02-21T21:22:11.585Z,14.07
2023-02-21T21:24:39.011Z,16.15
2023-02-21T21:27:09.835Z,16.55
2023-02-21T21:29:38.890Z,17.55
2023-02-21T21:32:08.514Z,17.42
2023-02-21T21:34:38.721Z,18.15
2023-02-21T21:37:05.737Z,16.00
2023-02-21T21:39:35.236Z,16.77
2023-02-21T21:42:05.225Z,19.48
2023-02-21T21:44:32.579Z,18.27
2023-02-21T21:47:00.866Z,15.23
2023-02-21T21:49:30.892Z,18.23
2023-02-21T21:51:57.794Z,15.95
2023-02-21T21:54:26.544Z,18.27
2023-02-21T21:56:55.007Z,16.83
2023-02-21T21:59:26.750Z,18.83
2023-02-21T22:01:53.866Z,19.48
2023-02-21T22:04:20.994Z,20.48
2023-02-21T22:06:47.941Z,21.88
2023-02-21T22:09:15.184Z,22.13
2023-02-21T22:11:49.596Z,16.10
2023-02-21T22:14:17.975Z,17.20
2023-02-21T22:16:47.848Z,17.05
2023-02-21T22:19:15.864Z,14.93
2023-02-21T22:21:45.484Z,15.88
2023-02-21T22:24:15.072Z,17.92
2023-02-21T22:26:44.708Z,18.40
2023-02-21T22:29:15.382Z,14.30
2023-02-21T22:31:43.507Z,15.10
2023-02-21T22:34:10.385Z,13.07
2023-02-21T22:36:37.210Z,15.23
2023-02-21T22:39:10.988Z,14.27
2023-02-21T22:41:37.795Z,15.02
2023-02-21T22:44:04.370Z,17.48
2023-02-21T22:46:40.665Z,19.00
2023-02-21T22:49:07.682Z,20.73
2023-02-21T22:51:34.224Z,17.15
2023-02-21T22:54:00.998Z,18.05
2023-02-21T22:56:29.204Z,15.65
2023-02-21T22:58:57.658Z,19.98
2023-02-21T23:01:26.505Z,16.30
2023-02-21T23:03:54.747Z,17.58
2023-02-21T23:06:21.404Z,15.68
2023-02-21T23:08:49.349Z,17.40
2023-02-21T23:11:25.477Z,15.30
2023-02-21T23:13:52.239Z,17.65
2023-02-21T23:16:21.883Z,18.58
2023-02-21T23:18:48.515Z,14.43
2023-02-21T23:21:22.791Z,17.63
2023-02-21T23:23:50.630Z,19.70
2023-02-21T23:26:21.934Z,19.23
2023-02-21T23:28:49.388Z,16.95
2023-02-21T23:31:18.049Z,18.90
2023-02-21T23:33:48.601Z,18.25
2023-02-21T23:36:22.235Z,18.45
2023-02-21T23:38:50.428Z,17.42
2023-02-21T23:41:17.960Z,15.38
2023-02-21T23:43:48.010Z,18.48
2023-02-21T23:46:24.397Z,17.33
2023-02-21T23:48:53.673Z,20.08
2023-02-21T23:51:22.191Z,13.68
2023-02-21T23:53:48.973Z,15.48
2023-02-21T23:56:15.662Z,13.40
2023-02-21T23:58:45.570Z,14.38
